createdAt,value
2022-10-13T00:00:25.713Z,15.00
2022-10-13T00:02:52.469Z,15.00
2022-10-13T00:05:19.231Z,15.00
2022-10-13T00:07:46.017Z,15.00
2022-10-13T00:10:12.765Z,15.10
2022-10-13T00:12:39.513Z,15.00
2022-10-13T00:15:06.701Z,15.00
2022-10-13T00:17:33.602Z,14.90
2022-10-13T00:20:00.576Z,14.80
2022-10-13T00:22:27.608Z,14.80
2022-10-13T00:24:54.429Z,14.80
2022-10-13T00:27:21.183Z,14.80
2022-10-13T00:29:47.946Z,14.80
2022-10-13T00:32:14.744Z,14.70
2022-10-13T00:34:41.698Z,14.70
2022-10-13T00:37:08.549Z,14.60
2022-10-13T00:39:36.165Z,14.60
2022-10-13T00:42:02.887Z,14.60
2022-10-13T00:44:48.429Z,14.60
2022-10-13T00:47:15.160Z,14.60
2022-10-13T00:49:41.912Z,14.70
2022-10-13T00:52:08.638Z,14.60
2022-10-13T00:54:35.361Z,14.70
2022-10-13T00:57:02.981Z,14.70
2022-10-13T00:59:29.748Z,14.60
2022-10-13T01:01:57.370Z,14.60
2022-10-13T01:04:24.933Z,14.50
2022-10-13T01:06:52.372Z,14.50
2022-10-13T01:09:19.151Z,14.50
2022-10-13T01:12:10.968Z,14.50
2022-10-13T01:14:40.448Z,14.40
2022-10-13T01:17:10.010Z,14.40
2022-10-13T01:19:45.866Z,14.40
2022-10-13T01:22:15.385Z,14.40
2022-10-13T01:24:46.273Z,14.40
2022-10-13T01:27:15.182Z,14.30
2022-10-13T01:29:41.892Z,14.30
2022-10-13T01:32:21.172Z,14.20
2022-10-13T01:35:20.595Z,14.20
2022-10-13T01:37:49.107Z,14.20
2022-10-13T01:40:16.466Z,14.10
2022-10-13T01:42:46.591Z,14.10
2022-10-13T01:45:13.310Z,14.00
2022-10-13T01:47:40.130Z,14.00
2022-10-13T01:50:07.227Z,14.00
2022-10-13T01:52:35.432Z,13.90
2022-10-13T01:55:09.316Z,14.00
2022-10-13T01:57:37.829Z,13.90
2022-10-13T02:00:06.464Z,13.90
2022-10-13T02:02:40.783Z,13.80
2022-10-13T02:05:10.557Z,13.70
2022-10-13T02:07:47.165Z,13.70
2022-10-13T02:10:19.994Z,13.70
2022-10-13T02:12:49.349Z,13.60
2022-10-13T02:15:16.941Z,13.60
2022-10-13T02:17:43.785Z,13.60
2022-10-13T02:20:10.567Z,13.60
2022-10-13T02:22:38.573Z,13.70
2022-10-13T02:25:05.610Z,13.70
2022-10-13T02:27:32.301Z,13.80
2022-10-13T02:29:59.226Z,13.80
2022-10-13T02:32:25.944Z,13.90
2022-10-13T02:34:52.677Z,13.90
2022-10-13T02:37:19.604Z,13.90
2022-10-13T02:39:46.383Z,13.90
2022-10-13T02:42:13.226Z,13.90
2022-10-13T02:44:40.279Z,13.80
2022-10-13T02:47:07.010Z,13.80
2022-10-13T02:49:33.815Z,13.80
2022-10-13T02:52:00.548Z,13.80
2022-10-13T02:54:27.312Z,13.70
2022-10-13T02:56:54.091Z,13.70
2022-10-13T02:59:20.818Z,13.70
2022-10-13T03:01:47.631Z,13.60
2022-10-13T03:04:14.411Z,13.60
2022-10-13T03:06:41.191Z,13.60
2022-10-13T03:09:07.965Z,13.60
2022-10-13T03:11:34.804Z,13.60
2022-10-13T03:14:01.564Z,13.60
2022-10-13T03:16:28.339Z,13.50
2022-10-13T03:18:55.088Z,13.50
2022-10-13T03:21:21.796Z,13.50
2022-10-13T03:23:48.648Z,13.50
2022-10-13T03:26:16.346Z,13.50
2022-10-13T03:28:43.271Z,13.50
2022-10-13T03:31:10.953Z,13.50
2022-10-13T03:33:37.691Z,13.50
2022-10-13T03:36:04.997Z,13.50
2022-10-13T03:38:32.044Z,13.40
2022-10-13T03:41:00.709Z,13.40
2022-10-13T03:43:27.536Z,13.40
2022-10-13T03:45:55.031Z,13.30
2022-10-13T03:48:21.779Z,13.30
2022-10-13T03:50:48.517Z,13.30
2022-10-13T03:53:15.588Z,13.30
2022-10-13T03:55:42.373Z,13.30
2022-10-13T03:58:09.176Z,13.20
2022-10-13T04:00:36.057Z,13.20
2022-10-13T04:03:02.802Z,13.20
2022-10-13T04:05:29.537Z,13.20
2022-10-13T04:07:56.304Z,13.20
2022-10-13T04:10:23.048Z,13.20
2022-10-13T04:12:49.785Z,13.30
2022-10-13T04:15:16.532Z,13.40
2022-10-13T04:17:43.342Z,13.40
2022-10-13T04:20:10.290Z,13.40
2022-10-13T04:22:37.061Z,13.30
2022-10-13T04:25:04.046Z,13.30
2022-10-13T04:27:30.861Z,13.30
2022-10-13T04:29:57.591Z,13.20
2022-10-13T04:32:24.489Z,13.20
2022-10-13T04:34:51.374Z,13.20
2022-10-13T04:37:18.132Z,13.20
2022-10-13T04:39:44.861Z,13.20
2022-10-13T04:42:11.685Z,13.10
2022-10-13T04:44:38.419Z,13.10
2022-10-13T04:47:05.197Z,13.10
2022-10-13T04:49:32.079Z,13.20
2022-10-13T04:51:58.810Z,13.10
2022-10-13T04:54:25.560Z,13.10
2022-10-13T04:56:52.270Z,13.10
2022-10-13T04:59:19.000Z,13.10
2022-10-13T05:01:45.739Z,13.10
2022-10-13T05:04:12.486Z,13.10
2022-10-13T05:06:58.851Z,13.10
2022-10-13T05:09:26.011Z,13.20
2022-10-13T05:11:54.941Z,13.20
2022-10-13T05:14:22.128Z,13.30
2022-10-13T05:16:49.270Z,13.30
2022-10-13T05:19:16.073Z,13.40
2022-10-13T05:21:42.831Z,13.40
2022-10-13T05:24:13.670Z,13.50
2022-10-13T05:26:40.535Z,13.50
2022-10-13T05:29:07.266Z,13.60
2022-10-13T05:31:35.404Z,13.60
2022-10-13T05:34:02.227Z,13.60
2022-10-13T05:36:31.077Z,13.70
2022-10-13T05:38:58.834Z,13.80
2022-10-13T05:41:25.830Z,13.80
2022-10-13T05:43:57.494Z,13.80
2022-10-13T05:46:24.256Z,13.80
2022-10-13T05:48:51.213Z,13.90
2022-10-13T05:51:24.438Z,13.90
2022-10-13T05:54:02.275Z,13.90
2022-10-13T05:56:30.534Z,13.90
2022-10-13T05:58:59.334Z,13.90
2022-10-13T06:01:26.535Z,14.00
2022-10-13T06:03:53.629Z,14.00
2022-10-13T06:06:20.392Z,13.90
2022-10-13T06:08:47.151Z,13.90
2022-10-13T06:11:13.893Z,13.90
2022-10-13T06:13:40.612Z,14.00
2022-10-13T06:16:07.401Z,14.00
2022-10-13T06:18:34.143Z,14.10
2022-10-13T06:21:00.910Z,14.10
2022-10-13T06:23:27.710Z,14.20
2022-10-13T06:25:54.496Z,14.20
2022-10-13T06:28:21.395Z,14.30
2022-10-13T06:30:53.442Z,14.30
2022-10-13T06:33:20.676Z,14.30
2022-10-13T06:35:47.451Z,14.30
2022-10-13T06:38:14.309Z,14.20
2022-10-13T06:40:41.036Z,14.30
2022-10-13T06:43:07.782Z,14.20
2022-10-13T06:45:34.504Z,14.30
2022-10-13T06:48:01.260Z,14.30
2022-10-13T06:50:28.139Z,14.20
2022-10-13T06:52:55.421Z,14.30
2022-10-13T06:55:22.162Z,14.20
2022-10-13T06:57:48.918Z,14.20
2022-10-13T07:00:15.742Z,14.30
2022-10-13T07:02:42.496Z,14.30
2022-10-13T07:05:09.294Z,14.40
2022-10-13T07:07:36.060Z,14.40
2022-10-13T07:10:05.455Z,14.50
2022-10-13T07:12:32.304Z,14.50
2022-10-13T07:14:59.369Z,14.60
2022-10-13T07:17:26.104Z,14.60
2022-10-13T07:19:56.951Z,14.70
2022-10-13T07:22:24.657Z,14.70
2022-10-13T07:24:51.388Z,14.70
2022-10-13T07:27:18.290Z,14.70
2022-10-13T07:29:45.031Z,14.70
2022-10-13T07:32:11.765Z,14.80
2022-10-13T07:34:38.522Z,14.90
2022-10-13T07:37:05.322Z,15.00
2022-10-13T07:39:32.238Z,15.20
2022-10-13T07:41:58.975Z,15.40
2022-10-13T07:44:25.905Z,15.60
2022-10-13T07:46:54.715Z,15.70
2022-10-13T07:49:21.500Z,15.80
2022-10-13T07:51:48.280Z,15.80
2022-10-13T07:54:15.016Z,15.90
2022-10-13T07:56:41.788Z,16.00
2022-10-13T07:59:08.579Z,16.20
2022-10-13T08:01:35.463Z,16.30
2022-10-13T08:04:02.284Z,16.40
2022-10-13T08:06:29.105Z,16.60
2022-10-13T08:08:57.776Z,16.70
2022-10-13T08:11:24.524Z,16.90
2022-10-13T08:13:51.413Z,17.20
2022-10-13T08:16:18.325Z,17.40
2022-10-13T08:18:45.544Z,17.70
2022-10-13T08:21:53.323Z,17.90
2022-10-13T08:23:59.829Z,18.20
2022-10-13T08:26:26.953Z,18.60
2022-10-13T08:31:41.140Z,19.20
2022-10-13T08:34:08.300Z,19.60
2022-10-13T08:36:35.142Z,20.40
2022-10-13T08:39:02.079Z,21.20
2022-10-13T08:41:30.383Z,21.80
2022-10-13T08:44:40.966Z,22.30
2022-10-13T08:46:57.569Z,22.90
2022-10-13T08:49:24.315Z,23.50
2022-10-13T08:51:51.804Z,24.00
2022-10-13T08:54:18.554Z,24.60
2022-10-13T08:56:49.966Z,25.10
2022-10-13T08:59:17.862Z,25.30
2022-10-13T09:01:49.145Z,25.10
2022-10-13T09:04:25.107Z,25.10
2022-10-13T09:06:53.163Z,25.10
2022-10-13T09:09:19.947Z,25.10
2022-10-13T09:11:47.648Z,25.00
2022-10-13T09:14:23.352Z,25.00
2022-10-13T09:16:50.808Z,25.00
2022-10-13T09:19:27.495Z,24.90
2022-10-13T09:21:58.171Z,24.60
2022-10-13T09:24:25.752Z,24.30
2022-10-13T09:27:03.598Z,24.20
2022-10-13T09:29:30.346Z,24.00
2022-10-13T09:32:15.232Z,24.10
2022-10-13T09:34:42.068Z,24.40
2022-10-13T09:37:17.677Z,24.80
2022-10-13T09:39:44.416Z,25.10
2022-10-13T09:42:22.100Z,25.30
2022-10-13T09:44:55.803Z,25.60
2022-10-13T09:47:23.074Z,26.00
2022-10-13T09:50:04.702Z,26.10
2022-10-13T09:52:34.843Z,26.10
2022-10-13T09:55:01.625Z,26.00
2022-10-13T09:57:34.400Z,26.20
2022-10-13T10:00:10.167Z,26.50
2022-10-13T10:02:43.175Z,26.60
2022-10-13T10:05:22.501Z,26.60
2022-10-13T10:07:49.307Z,26.30
2022-10-13T10:10:21.773Z,25.80
2022-10-13T10:12:48.580Z,25.20
2022-10-13T10:15:23.599Z,24.70
2022-10-13T10:17:58.725Z,24.30
2022-10-13T10:20:28.501Z,24.00
2022-10-13T10:22:58.086Z,23.80
2022-10-13T10:25:28.158Z,23.60
2022-10-13T10:28:04.096Z,23.20
2022-10-13T10:30:30.957Z,22.80
2022-10-13T10:32:59.885Z,22.70
2022-10-13T10:35:45.573Z,23.00
2022-10-13T10:38:12.288Z,23.20
2022-10-13T10:40:57.969Z,23.20
2022-10-13T10:43:39.182Z,23.00
2022-10-13T10:46:06.096Z,22.80
2022-10-13T10:48:41.850Z,22.70
2022-10-13T10:51:08.738Z,22.60
2022-10-13T10:53:35.464Z,22.60
2022-10-13T10:56:04.454Z,22.60
2022-10-13T10:58:34.332Z,22.70
2022-10-13T11:01:19.550Z,22.70
2022-10-13T11:03:49.157Z,22.60
2022-10-13T11:06:15.895Z,22.50
2022-10-13T11:08:42.661Z,22.20
2022-10-13T11:11:29.291Z,22.00
2022-10-13T11:14:00.991Z,21.70
2022-10-13T11:16:31.461Z,21.50
2022-10-13T11:18:59.560Z,21.50
2022-10-13T11:21:26.410Z,21.60
2022-10-13T11:23:53.206Z,21.70
2022-10-13T11:26:29.885Z,21.80
2022-10-13T11:28:56.689Z,21.90
2022-10-13T11:31:23.622Z,22.10
2022-10-13T11:33:51.887Z,22.00
2022-10-13T11:36:31.581Z,22.00
2022-10-13T11:39:18.602Z,22.20
2022-10-13T11:41:52.040Z,22.30
2022-10-13T11:46:58.739Z,22.30
2022-10-13T11:49:45.725Z,22.20
2022-10-13T11:52:12.935Z,22.20
2022-10-13T11:54:40.918Z,22.00
2022-10-13T11:57:17.512Z,21.90
2022-10-13T11:59:45.711Z,21.80
2022-10-13T12:02:12.683Z,21.70
2022-10-13T12:04:45.570Z,21.60
2022-10-13T12:07:13.861Z,21.60
2022-10-13T12:09:49.516Z,21.90
2022-10-13T12:12:16.821Z,22.10
2022-10-13T12:14:44.919Z,22.20
2022-10-13T12:17:23.641Z,22.10
2022-10-13T12:19:50.992Z,21.80
2022-10-13T12:22:17.857Z,21.60
2022-10-13T12:24:46.743Z,21.60
2022-10-13T12:27:22.899Z,21.40
2022-10-13T12:29:49.820Z,21.30
2022-10-13T12:32:20.304Z,21.40
2022-10-13T12:34:47.139Z,21.50
2022-10-13T12:37:34.138Z,21.40
2022-10-13T12:40:00.927Z,21.30
2022-10-13T12:42:29.494Z,21.20
2022-10-13T12:44:56.569Z,21.20
2022-10-13T12:47:55.650Z,21.10
2022-10-13T12:50:25.173Z,21.00
2022-10-13T12:52:52.474Z,20.70
2022-10-13T12:55:19.759Z,20.50
2022-10-13T12:57:46.652Z,20.40
2022-10-13T13:00:23.048Z,20.30
2022-10-13T13:02:53.646Z,20.20
2022-10-13T13:05:36.742Z,20.10
2022-10-13T13:08:04.539Z,20.10
2022-10-13T13:10:31.391Z,20.10
2022-10-13T13:13:12.372Z,20.20
2022-10-13T13:15:39.583Z,20.20
2022-10-13T13:18:25.189Z,20.20
2022-10-13T13:20:52.097Z,20.10
2022-10-13T13:23:19.551Z,20.10
2022-10-13T13:25:46.773Z,20.10
2022-10-13T13:28:13.896Z,20.10
2022-10-13T13:30:40.796Z,20.10
2022-10-13T13:33:08.546Z,20.20
2022-10-13T13:35:35.394Z,20.30
2022-10-13T13:38:02.997Z,20.40
2022-10-13T13:40:29.807Z,20.40
2022-10-13T13:42:56.663Z,20.30
2022-10-13T13:45:24.955Z,20.20
2022-10-13T13:47:54.948Z,20.10
2022-10-13T13:50:25.706Z,20.10
2022-10-13T13:52:52.510Z,20.10
2022-10-13T13:55:19.318Z,20.10
2022-10-13T13:57:46.091Z,20.20
2022-10-13T14:00:13.258Z,20.40
2022-10-13T14:02:40.082Z,20.40
2022-10-13T14:05:07.720Z,20.40
2022-10-13T14:07:34.536Z,20.40
2022-10-13T14:10:02.381Z,20.50
2022-10-13T14:12:31.797Z,20.40
2022-10-13T14:14:58.814Z,20.40
2022-10-13T14:17:25.877Z,20.40
2022-10-13T14:19:52.622Z,20.40
2022-10-13T14:22:19.450Z,20.40
2022-10-13T14:24:46.182Z,20.40
2022-10-13T14:27:12.943Z,20.40
2022-10-13T14:29:39.703Z,20.40
2022-10-13T14:32:06.447Z,20.30
2022-10-13T14:34:33.729Z,20.30
2022-10-13T14:37:00.476Z,20.30
2022-10-13T14:39:27.229Z,20.40
2022-10-13T14:41:53.948Z,20.50
2022-10-13T14:44:20.697Z,20.50
2022-10-13T14:46:47.438Z,20.60
2022-10-13T14:49:14.216Z,20.60
2022-10-13T14:51:41.012Z,20.50
2022-10-13T14:54:07.758Z,20.50
2022-10-13T14:56:34.596Z,20.30
2022-10-13T14:59:01.845Z,20.10
2022-10-13T15:01:28.690Z,20.00
2022-10-13T15:03:55.577Z,20.00
2022-10-13T15:06:23.502Z,19.90
2022-10-13T15:08:50.362Z,19.90
2022-10-13T15:11:17.537Z,19.80
2022-10-13T15:13:44.306Z,19.80
2022-10-13T15:16:17.910Z,19.70
2022-10-13T15:18:44.661Z,19.70
2022-10-13T15:21:11.465Z,19.60
2022-10-13T15:23:38.314Z,19.50
2022-10-13T15:26:05.105Z,19.50
2022-10-13T15:28:35.874Z,19.40
2022-10-13T15:31:02.662Z,19.40
2022-10-13T15:33:29.751Z,19.30
2022-10-13T15:35:56.600Z,19.30
2022-10-13T15:38:23.443Z,19.30
2022-10-13T15:40:50.183Z,19.20
2022-10-13T15:43:17.039Z,19.20
2022-10-13T15:45:43.768Z,19.20
2022-10-13T15:48:10.865Z,19.20
2022-10-13T15:50:40.823Z,19.10
2022-10-13T15:53:07.730Z,19.10
2022-10-13T15:55:34.552Z,19.00
2022-10-13T15:58:01.307Z,18.90
2022-10-13T16:00:28.118Z,18.80
2022-10-13T16:02:54.899Z,18.80
2022-10-13T16:05:21.678Z,18.70
2022-10-13T16:07:48.509Z,18.60
2022-10-13T16:10:15.301Z,18.50
2022-10-13T16:12:48.385Z,18.40
2022-10-13T16:15:17.456Z,18.40
2022-10-13T16:17:46.390Z,18.40
2022-10-13T16:20:14.083Z,18.40
2022-10-13T16:22:40.827Z,18.40
2022-10-13T16:25:07.740Z,18.30
2022-10-13T16:27:34.469Z,18.30
2022-10-13T16:30:01.284Z,18.30
2022-10-13T16:32:28.068Z,18.40
2022-10-13T16:34:54.855Z,18.40
2022-10-13T16:37:21.905Z,18.40
2022-10-13T16:39:51.767Z,18.30
2022-10-13T16:42:18.987Z,18.30
2022-10-13T16:44:45.743Z,18.30
2022-10-13T16:47:16.001Z,18.20
2022-10-13T16:49:45.114Z,18.20
2022-10-13T16:52:12.314Z,18.20
2022-10-13T16:54:39.150Z,18.20
2022-10-13T16:57:05.874Z,18.30
2022-10-13T16:59:32.625Z,18.30
2022-10-13T17:01:59.486Z,18.30
2022-10-13T17:04:26.417Z,18.30
2022-10-13T17:06:53.208Z,18.30
2022-10-13T17:09:19.935Z,18.30
2022-10-13T17:11:46.989Z,18.30
2022-10-13T17:14:13.765Z,18.30
2022-10-13T17:16:40.536Z,18.30
2022-10-13T17:19:07.872Z,18.20
2022-10-13T17:21:34.607Z,18.30
2022-10-13T17:24:01.401Z,18.30
2022-10-13T17:26:28.149Z,18.30
2022-10-13T17:28:54.960Z,18.30
2022-10-13T17:31:22.251Z,18.30
2022-10-13T17:33:49.201Z,18.30
2022-10-13T17:36:25.884Z,18.30
2022-10-13T17:38:52.920Z,18.20
2022-10-13T17:41:19.798Z,18.30
2022-10-13T17:43:46.560Z,18.30
2022-10-13T17:46:35.821Z,18.30
2022-10-13T17:49:03.813Z,18.30
2022-10-13T17:51:30.637Z,18.20
2022-10-13T17:53:58.071Z,18.20
2022-10-13T17:56:24.905Z,18.20
2022-10-13T17:58:51.856Z,18.20
2022-10-13T18:01:22.823Z,18.20
2022-10-13T18:03:50.818Z,18.30
2022-10-13T18:06:17.684Z,18.20
2022-10-13T18:08:44.486Z,18.20
2022-10-13T18:11:12.058Z,18.20
2022-10-13T18:13:38.866Z,18.20
2022-10-13T18:16:06.352Z,18.10
2022-10-13T18:18:33.199Z,18.10
2022-10-13T18:21:07.512Z,18.10
2022-10-13T18:23:34.765Z,18.10
2022-10-13T18:26:01.965Z,18.10
2022-10-13T18:28:30.071Z,18.00
2022-10-13T18:31:01.958Z,18.00
2022-10-13T18:33:28.700Z,18.00
2022-10-13T18:35:55.422Z,17.90
2022-10-13T18:38:23.480Z,17.90
2022-10-13T18:40:50.363Z,17.90
2022-10-13T18:43:17.183Z,17.90
2022-10-13T18:45:44.001Z,17.80
2022-10-13T18:48:10.751Z,17.80
2022-10-13T18:50:37.865Z,17.80
2022-10-13T18:53:04.700Z,17.80
2022-10-13T18:55:31.462Z,17.60
2022-10-13T18:57:58.192Z,17.60
2022-10-13T19:00:25.015Z,17.50
2022-10-13T19:02:53.423Z,17.50
2022-10-13T19:05:20.192Z,17.40
2022-10-13T19:07:46.986Z,17.40
2022-10-13T19:10:13.782Z,17.30
2022-10-13T19:12:40.624Z,17.30
2022-10-13T19:15:07.589Z,17.20
2022-10-13T19:17:34.362Z,17.20
2022-10-13T19:20:01.086Z,17.10
2022-10-13T19:22:27.810Z,17.00
2022-10-13T19:24:54.831Z,17.00
2022-10-13T19:27:21.892Z,17.00
2022-10-13T19:29:51.549Z,16.90
2022-10-13T19:32:18.293Z,16.90
2022-10-13T19:34:45.041Z,16.90
2022-10-13T19:37:11.800Z,16.90
2022-10-13T19:39:38.599Z,16.90
2022-10-13T19:42:05.360Z,16.90
2022-10-13T19:44:32.153Z,16.90
2022-10-13T19:46:58.969Z,16.90
2022-10-13T19:49:26.559Z,16.80
2022-10-13T19:51:54.103Z,16.80
2022-10-13T19:54:21.174Z,16.80
2022-10-13T19:56:48.328Z,16.80
2022-10-13T19:59:15.377Z,16.80
2022-10-13T20:01:42.156Z,16.70
2022-10-13T20:04:08.954Z,16.80
2022-10-13T20:06:35.826Z,16.70
2022-10-13T20:09:02.613Z,16.70
2022-10-13T20:11:29.400Z,16.70
2022-10-13T20:13:56.130Z,16.70
2022-10-13T20:16:23.361Z,16.70
2022-10-13T20:18:53.487Z,16.60
2022-10-13T20:21:20.249Z,16.60
2022-10-13T20:23:47.001Z,16.50
2022-10-13T20:26:14.026Z,16.50
2022-10-13T20:28:43.039Z,16.40
2022-10-13T20:31:10.666Z,16.40
2022-10-13T20:33:37.459Z,16.40
2022-10-13T20:36:05.036Z,16.50
2022-10-13T20:38:32.221Z,16.50
2022-10-13T20:41:08.999Z,16.50
2022-10-13T20:43:35.852Z,16.50
2022-10-13T20:46:03.183Z,16.60
2022-10-13T20:48:51.041Z,16.60
2022-10-13T20:51:19.601Z,16.60
2022-10-13T20:53:46.509Z,16.60
2022-10-13T20:56:13.931Z,16.60
2022-10-13T20:58:40.645Z,16.60
2022-10-13T21:01:07.485Z,16.60
2022-10-13T21:03:34.321Z,16.60
2022-10-13T21:06:03.933Z,16.60
2022-10-13T21:08:30.771Z,16.60
2022-10-13T21:10:57.511Z,16.60
2022-10-13T21:13:25.614Z,16.60
2022-10-13T21:15:52.383Z,16.60
2022-10-13T21:18:19.179Z,16.60
2022-10-13T21:20:45.902Z,16.60
2022-10-13T21:23:12.673Z,16.60
2022-10-13T21:25:39.485Z,16.60
2022-10-13T21:28:06.427Z,16.60
2022-10-13T21:30:33.198Z,16.70
2022-10-13T21:33:00.016Z,16.70
2022-10-13T21:35:26.792Z,16.70
2022-10-13T21:37:53.541Z,16.70
2022-10-13T21:40:20.332Z,16.70
2022-10-13T21:42:47.073Z,16.80
2022-10-13T21:45:13.888Z,16.80
2022-10-13T21:47:40.623Z,16.80
2022-10-13T21:50:07.596Z,16.80
2022-10-13T21:52:34.746Z,16.70
2022-10-13T21:55:02.563Z,16.70
2022-10-13T21:57:29.308Z,16.70
2022-10-13T21:59:56.016Z,16.80
2022-10-13T22:02:22.794Z,16.80
2022-10-13T22:04:49.597Z,16.80
2022-10-13T22:07:16.345Z,16.80
2022-10-13T22:09:43.085Z,16.80
2022-10-13T22:12:09.799Z,16.70
2022-10-13T22:14:38.113Z,16.70
2022-10-13T22:17:05.042Z,16.70
2022-10-13T22:19:31.795Z,16.70
2022-10-13T22:21:58.527Z,16.70
2022-10-13T22:24:25.280Z,16.70
2022-10-13T22:26:52.233Z,16.80
2022-10-13T22:29:20.287Z,16.80
2022-10-13T22:31:47.108Z,16.80
2022-10-13T22:34:14.043Z,16.90
2022-10-13T22:36:44.396Z,16.80
2022-10-13T22:39:11.763Z,16.90
2022-10-13T22:41:38.548Z,16.90
2022-10-13T22:44:05.325Z,16.90
2022-10-13T22:46:32.927Z,16.80
2022-10-13T22:48:59.689Z,16.80
2022-10-13T22:51:27.402Z,16.80
2022-10-13T22:53:54.155Z,16.80
2022-10-13T22:56:22.163Z,16.70
2022-10-13T22:58:49.970Z,16.70
2022-10-13T23:01:16.865Z,16.60
2022-10-13T23:03:44.862Z,16.60
2022-10-13T23:06:12.698Z,16.60
2022-10-13T23:08:39.438Z,16.60
2022-10-13T23:11:06.179Z,16.60
2022-10-13T23:13:32.912Z,16.60
2022-10-13T23:16:03.393Z,16.60
2022-10-13T23:18:30.122Z,16.50
2022-10-13T23:20:57.185Z,16.50
2022-10-13T23:23:24.004Z,16.50
2022-10-13T23:25:50.740Z,16.50
2022-10-13T23:28:17.562Z,16.50
2022-10-13T23:30:44.363Z,16.40
2022-10-13T23:33:11.082Z,16.40
2022-10-13T23:35:37.817Z,16.50
2022-10-13T23:38:04.553Z,16.40
2022-10-13T23:40:31.458Z,16.40
2022-10-13T23:42:58.195Z,16.40
2022-10-13T23:45:24.935Z,16.40
2022-10-13T23:47:51.675Z,16.50
2022-10-13T23:50:18.415Z,16.50
2022-10-13T23:52:45.159Z,16.50
2022-10-13T23:55:12.127Z,16.50
2022-10-13T23:57:38.864Z,16.50
